sensor_id;sensor_type;location;lat;lon;timestamp;pressure;altitude;pressure_sealevel;temperature;humidity
56330;BME280;42236;48.058;10.632;2024-01-06T00:00:48;93443.16;;;4.60;100.00
56330;BME280;42236;48.058;10.632;2024-01-06T00:03:35;93448.50;;;4.60;100.00
56330;BME280;42236;48.058;10.632;2024-01-06T00:06:20;93440.81;;;4.59;100.00
56330;BME280;42236;48.058;10.632;2024-01-06T00:09:06;93449.19;;;4.57;100.00
56330;BME280;42236;48.058;10.632;2024-01-06T00:11:52;93443.38;;;4.55;100.00
56330;BME280;42236;48.058;10.632;2024-01-06T00:14:38;93438.72;;;4.52;100.00
56330;BME280;42236;48.058;10.632;2024-01-06T00:17:24;93439.03;;;4.51;100.00
56330;BME280;42236;48.058;10.632;2024-01-06T00:20:10;93435.13;;;4.48;100.00
56330;BME280;42236;48.058;10.632;2024-01-06T00:22:55;93440.16;;;4.49;100.00
56330;BME280;42236;48.058;10.632;2024-01-06T00:25:44;93439.81;;;4.51;100.00
56330;BME280;42236;48.058;10.632;2024-01-06T00:28:30;93439.13;;;4.54;100.00
56330;BME280;42236;48.058;10.632;2024-01-06T00:31:15;93428.47;;;4.54;100.00
56330;BME280;42236;48.058;10.632;2024-01-06T00:34:02;93434.59;;;4.55;100.00
56330;BME280;42236;48.058;10.632;2024-01-06T00:36:49;93430.69;;;4.52;100.00
56330;BME280;42236;48.058;10.632;2024-01-06T00:39:34;93434.00;;;4.49;100.00
56330;BME280;42236;48.058;10.632;2024-01-06T00:42:20;93430.56;;;4.48;100.00
56330;BME280;42236;48.058;10.632;2024-01-06T00:45:06;93429.78;;;4.48;100.00
56330;BME280;42236;48.058;10.632;2024-01-06T00:47:52;93427.44;;;4.46;100.00
56330;BME280;42236;48.058;10.632;2024-01-06T00:50:37;93417.56;;;4.47;100.00
56330;BME280;42236;48.058;10.632;2024-01-06T00:53:23;93420.66;;;4.49;100.00
56330;BME280;42236;48.058;10.632;2024-01-06T00:56:09;93425.56;;;4.47;100.00
56330;BME280;42236;48.058;10.632;2024-01-06T00:58:54;93430.47;;;4.45;100.00
56330;BME280;42236;48.058;10.632;2024-01-06T01:01:40;93429.25;;;4.42;100.00
56330;BME280;42236;48.058;10.632;2024-01-06T01:04:26;93422.66;;;4.40;100.00
56330;BME280;42236;48.058;10.632;2024-01-06T01:07:12;93437.44;;;4.37;100.00
56330;BME280;42236;48.058;10.632;2024-01-06T01:09:58;93436.88;;;4.32;100.00
56330;BME280;42236;48.058;10.632;2024-01-06T01:12:44;93439.09;;;4.30;100.00
56330;BME280;42236;48.058;10.632;2024-01-06T01:15:29;93442.44;;;4.26;100.00
56330;BME280;42236;48.058;10.632;2024-01-06T01:18:15;93446.66;;;4.27;100.00
56330;BME280;42236;48.058;10.632;2024-01-06T01:21:01;93453.44;;;4.25;100.00
56330;BME280;42236;48.058;10.632;2024-01-06T01:23:46;93462.22;;;4.25;100.00
56330;BME280;42236;48.058;10.632;2024-01-06T01:26:32;93469.78;;;4.23;100.00
56330;BME280;42236;48.058;10.632;2024-01-06T01:29:17;93470.88;;;4.22;100.00
56330;BME280;42236;48.058;10.632;2024-01-06T01:32:05;93474.34;;;4.23;100.00
56330;BME280;42236;48.058;10.632;2024-01-06T01:34:51;93475.59;;;4.25;100.00
56330;BME280;42236;48.058;10.632;2024-01-06T01:37:37;93469.34;;;4.21;100.00
56330;BME280;42236;48.058;10.632;2024-01-06T01:40:22;93468.22;;;4.22;100.00
56330;BME280;42236;48.058;10.632;2024-01-06T01:43:21;93480.78;;;4.22;100.00
56330;BME280;42236;48.058;10.632;2024-01-06T01:46:06;93472.00;;;4.21;100.00
56330;BME280;42236;48.058;10.632;2024-01-06T01:48:54;93475.75;;;4.20;100.00
56330;BME280;42236;48.058;10.632;2024-01-06T01:51:41;93482.22;;;4.19;100.00
56330;BME280;42236;48.058;10.632;2024-01-06T01:54:28;93483.97;;;4.15;100.00
56330;BME280;42236;48.058;10.632;2024-01-06T01:57:15;93485.09;;;4.14;100.00
56330;BME280;42236;48.058;10.632;2024-01-06T02:00:01;93475.72;;;4.08;100.00
56330;BME280;42236;48.058;10.632;2024-01-06T02:02:46;93483.28;;;4.06;100.00
56330;BME280;42236;48.058;10.632;2024-01-06T02:05:32;93487.72;;;4.02;100.00
56330;BME280;42236;48.058;10.632;2024-01-06T02:08:17;93495.25;;;4.00;100.00
56330;BME280;42236;48.058;10.632;2024-01-06T02:11:04;93488.69;;;3.97;100.00
56330;BME280;42236;48.058;10.632;2024-01-06T02:13:50;93490.59;;;3.97;100.00
56330;BME280;42236;48.058;10.632;2024-01-06T02:16:35;93488.56;;;3.94;100.00
56330;BME280;42236;48.058;10.632;2024-01-06T02:19:21;93488.56;;;3.94;100.00
56330;BME280;42236;48.058;10.632;2024-01-06T02:22:07;93492.66;;;3.91;100.00
56330;BME280;42236;48.058;10.632;2024-01-06T02:24:53;93484.22;;;3.89;100.00
56330;BME280;42236;48.058;10.632;2024-01-06T02:27:39;93490.06;;;3.82;100.00
56330;BME280;42236;48.058;10.632;2024-01-06T02:30:24;93497.31;;;3.82;100.00
56330;BME280;42236;48.058;10.632;2024-01-06T02:33:10;93492.75;;;3.82;100.00
56330;BME280;42236;48.058;10.632;2024-01-06T02:35:56;93500.75;;;3.82;100.00
56330;BME280;42236;48.058;10.632;2024-01-06T02:38:41;93506.06;;;3.82;100.00
56330;BME280;42236;48.058;10.632;2024-01-06T02:41:27;93504.50;;;3.81;100.00
56330;BME280;42236;48.058;10.632;2024-01-06T02:44:13;93510.19;;;3.80;100.00
56330;BME280;42236;48.058;10.632;2024-01-06T02:46:59;93502.50;;;3.78;100.00
56330;BME280;42236;48.058;10.632;2024-01-06T02:49:45;93509.56;;;3.74;100.00
56330;BME280;42236;48.058;10.632;2024-01-06T02:52:30;93511.00;;;3.72;100.00
56330;BME280;42236;48.058;10.632;2024-01-06T02:55:16;93507.56;;;3.71;100.00
56330;BME280;42236;48.058;10.632;2024-01-06T02:58:02;93512.44;;;3.69;100.00
56330;BME280;42236;48.058;10.632;2024-01-06T03:00:47;93516.88;;;3.65;100.00
56330;BME280;42236;48.058;10.632;2024-01-06T03:03:33;93515.94;;;3.61;100.00
56330;BME280;42236;48.058;10.632;2024-01-06T03:06:19;93519.28;;;3.58;100.00
56330;BME280;42236;48.058;10.632;2024-01-06T03:09:04;93521.94;;;3.58;100.00
56330;BME280;42236;48.058;10.632;2024-01-06T03:11:50;93519.13;;;3.54;100.00
56330;BME280;42236;48.058;10.632;2024-01-06T03:14:36;93527.78;;;3.51;100.00
56330;BME280;42236;48.058;10.632;2024-01-06T03:17:21;93534.06;;;3.47;100.00
56330;BME280;42236;48.058;10.632;2024-01-06T03:20:07;93529.06;;;3.45;100.00
56330;BME280;42236;48.058;10.632;2024-01-06T03:22:54;93530.00;;;3.40;100.00
56330;BME280;42236;48.058;10.632;2024-01-06T03:25:40;93537.56;;;3.38;100.00
56330;BME280;42236;48.058;10.632;2024-01-06T03:28:26;93528.34;;;3.36;100.00
56330;BME280;42236;48.058;10.632;2024-01-06T03:31:11;93530.19;;;3.35;100.00
56330;BME280;42236;48.058;10.632;2024-01-06T03:33:57;93535.06;;;3.33;100.00
56330;BME280;42236;48.058;10.632;2024-01-06T03:36:43;93541.50;;;3.32;100.00
56330;BME280;42236;48.058;10.632;2024-01-06T03:39:28;93538.06;;;3.32;100.00
56330;BME280;42236;48.058;10.632;2024-01-06T03:42:14;93540.75;;;3.32;100.00
56330;BME280;42236;48.058;10.632;2024-01-06T03:44:59;93536.97;;;3.33;100.00
56330;BME280;42236;48.058;10.632;2024-01-06T03:47:45;93539.63;;;3.33;100.00
56330;BME280;42236;48.058;10.632;2024-01-06T03:50:31;93545.28;;;3.31;100.00
56330;BME280;42236;48.058;10.632;2024-01-06T03:53:16;93544.84;;;3.29;100.00
56330;BME280;42236;48.058;10.632;2024-01-06T03:56:03;93550.47;;;3.28;100.00
56330;BME280;42236;48.058;10.632;2024-01-06T03:58:49;93540.94;;;3.27;100.00
56330;BME280;42236;48.058;10.632;2024-01-06T04:01:35;93543.25;;;3.28;100.00
56330;BME280;42236;48.058;10.632;2024-01-06T04:04:21;93542.00;;;3.26;100.00
56330;BME280;42236;48.058;10.632;2024-01-06T04:07:10;93542.00;;;3.26;100.00
56330;BME280;42236;48.058;10.632;2024-01-06T04:09:56;93537.47;;;3.26;100.00
56330;BME280;42236;48.058;10.632;2024-01-06T04:12:41;93551.13;;;3.25;100.00
56330;BME280;42236;48.058;10.632;2024-01-06T04:15:27;93546.75;;;3.20;100.00
56330;BME280;42236;48.058;10.632;2024-01-06T04:18:13;93550.06;;;3.17;100.00
56330;BME280;42236;48.058;10.632;2024-01-06T04:20:58;93555.22;;;3.13;100.00
56330;BME280;42236;48.058;10.632;2024-01-06T04:23:44;93551.38;;;3.02;100.00
56330;BME280;42236;48.058;10.632;2024-01-06T04:26:29;93555.19;;;2.92;100.00
56330;BME280;42236;48.058;10.632;2024-01-06T04:29:15;93554.59;;;2.78;100.00
56330;BME280;42236;48.058;10.632;2024-01-06T04:32:01;93564.13;;;2.70;100.00
56330;BME280;42236;48.058;10.632;2024-01-06T04:34:46;93562.59;;;2.61;100.00
56330;BME280;42236;48.058;10.632;2024-01-06T04:37:32;93569.38;;;2.49;100.00
56330;BME280;42236;48.058;10.632;2024-01-06T04:40:18;93567.19;;;2.43;100.00
56330;BME280;42236;48.058;10.632;2024-01-06T04:43:03;93567.00;;;2.39;100.00
56330;BME280;42236;48.058;10.632;2024-01-06T04:45:49;93574.84;;;2.35;100.00
56330;BME280;42236;48.058;10.632;2024-01-06T04:48:35;93583.13;;;2.34;100.00
56330;BME280;42236;48.058;10.632;2024-01-06T04:51:21;93585.50;;;2.35;100.00
56330;BME280;42236;48.058;10.632;2024-01-06T04:54:07;93593.19;;;2.37;100.00
56330;BME280;42236;48.058;10.632;2024-01-06T04:56:53;93590.03;;;2.35;100.00
56330;BME280;42236;48.058;10.632;2024-01-06T04:59:38;93596.44;;;2.43;100.00
56330;BME280;42236;48.058;10.632;2024-01-06T05:02:24;93602.84;;;2.50;100.00
56330;BME280;42236;48.058;10.632;2024-01-06T05:05:10;93591.13;;;2.51;100.00
56330;BME280;42236;48.058;10.632;2024-01-06T05:07:55;93599.56;;;2.53;100.00
56330;BME280;42236;48.058;10.632;2024-01-06T05:10:41;93606.63;;;2.49;100.00
56330;BME280;42236;48.058;10.632;2024-01-06T05:13:26;93605.03;;;2.48;100.00
56330;BME280;42236;48.058;10.632;2024-01-06T05:16:12;93607.25;;;2.46;100.00
56330;BME280;42236;48.058;10.632;2024-01-06T05:18:58;93616.16;;;2.50;100.00
56330;BME280;42236;48.058;10.632;2024-01-06T05:21:43;93615.22;;;2.55;100.00
56330;BME280;42236;48.058;10.632;2024-01-06T05:24:29;93616.47;;;2.58;100.00
56330;BME280;42236;48.058;10.632;2024-01-06T05:27:14;93622.75;;;2.62;100.00
56330;BME280;42236;48.058;10.632;2024-01-06T05:30:00;93621.63;;;2.63;100.00
56330;BME280;42236;48.058;10.632;2024-01-06T05:32:46;93632.75;;;2.65;100.00
56330;BME280;42236;48.058;10.632;2024-01-06T05:35:32;93639.97;;;2.64;100.00
56330;BME280;42236;48.058;10.632;2024-01-06T05:38:17;93646.25;;;2.68;100.00
56330;BME280;42236;48.058;10.632;2024-01-06T05:41:03;93643.41;;;2.73;100.00
56330;BME280;42236;48.058;10.632;2024-01-06T05:43:48;93654.97;;;2.77;100.00
56330;BME280;42236;48.058;10.632;2024-01-06T05:46:34;93653.56;;;2.80;100.00
56330;BME280;42236;48.058;10.632;2024-01-06T05:49:20;93653.56;;;2.80;100.00
56330;BME280;42236;48.058;10.632;2024-01-06T05:52:05;93657.81;;;2.72;100.00
56330;BME280;42236;48.058;10.632;2024-01-06T05:54:51;93657.66;;;2.69;100.00
56330;BME280;42236;48.058;10.632;2024-01-06T05:57:37;93649.84;;;2.64;100.00
56330;BME280;42236;48.058;10.632;2024-01-06T06:00:22;93651.72;;;2.54;100.00
56330;BME280;42236;48.058;10.632;2024-01-06T06:03:08;93651.41;;;2.47;100.00
56330;BME280;42236;48.058;10.632;2024-01-06T06:05:54;93652.97;;;2.48;100.00
56330;BME280;42236;48.058;10.632;2024-01-06T06:08:41;93657.03;;;2.54;100.00
56330;BME280;42236;48.058;10.632;2024-01-06T06:11:27;93666.91;;;2.63;100.00
56330;BME280;42236;48.058;10.632;2024-01-06T06:14:13;93675.84;;;2.67;100.00
56330;BME280;42236;48.058;10.632;2024-01-06T06:16:59;93679.56;;;2.66;100.00
56330;BME280;42236;48.058;10.632;2024-01-06T06:19:44;93682.72;;;2.68;100.00
56330;BME280;42236;48.058;10.632;2024-01-06T06:22:30;93683.66;;;2.72;100.00
56330;BME280;42236;48.058;10.632;2024-01-06T06:25:15;93688.84;;;2.68;100.00
56330;BME280;42236;48.058;10.632;2024-01-06T06:28:01;93685.06;;;2.69;100.00
56330;BME280;42236;48.058;10.632;2024-01-06T06:30:48;93689.63;;;2.69;100.00
56330;BME280;42236;48.058;10.632;2024-01-06T06:33:34;93688.03;;;2.68;100.00
56330;BME280;42236;48.058;10.632;2024-01-06T06:36:19;93693.84;;;2.61;100.00
56330;BME280;42236;48.058;10.632;2024-01-06T06:39:05;93687.25;;;2.50;100.00
56330;BME280;42236;48.058;10.632;2024-01-06T06:41:51;93687.25;;;2.32;100.00
56330;BME280;42236;48.058;10.632;2024-01-06T06:44:36;93701.16;;;2.21;100.00
56330;BME280;42236;48.058;10.632;2024-01-06T06:47:23;93692.22;;;2.17;100.00
56330;BME280;42236;48.058;10.632;2024-01-06T06:50:09;93695.03;;;2.11;100.00
56330;BME280;42236;48.058;10.632;2024-01-06T06:52:55;93698.00;;;2.10;100.00
56330;BME280;42236;48.058;10.632;2024-01-06T06:55:40;93699.25;;;2.12;100.00
56330;BME280;42236;48.058;10.632;2024-01-06T06:58:26;93706.63;;;2.16;100.00
56330;BME280;42236;48.058;10.632;2024-01-06T07:01:16;93712.25;;;2.14;100.00
56330;BME280;42236;48.058;10.632;2024-01-06T07:04:02;93713.84;;;2.15;100.00
56330;BME280;42236;48.058;10.632;2024-01-06T07:06:48;93706.16;;;2.22;100.00
56330;BME280;42236;48.058;10.632;2024-01-06T07:09:34;93713.69;;;2.29;100.00
56330;BME280;42236;48.058;10.632;2024-01-06T07:12:19;93709.31;;;2.33;100.00
56330;BME280;42236;48.058;10.632;2024-01-06T07:15:05;93712.75;;;2.33;100.00
56330;BME280;42236;48.058;10.632;2024-01-06T07:17:51;93719.34;;;2.36;100.00
56330;BME280;42236;48.058;10.632;2024-01-06T07:20:37;93721.84;;;2.41;100.00
56330;BME280;42236;48.058;10.632;2024-01-06T07:23:22;93726.56;;;2.44;100.00
56330;BME280;42236;48.058;10.632;2024-01-06T07:26:08;93719.84;;;2.47;100.00
56330;BME280;42236;48.058;10.632;2024-01-06T07:28:54;93733.94;;;2.47;100.00
56330;BME280;42236;48.058;10.632;2024-01-06T07:31:40;93732.81;;;2.48;100.00
56330;BME280;42236;48.058;10.632;2024-01-06T07:34:26;93735.47;;;2.48;100.00
56330;BME280;42236;48.058;10.632;2024-01-06T07:37:11;93738.16;;;2.48;100.00
56330;BME280;42236;48.058;10.632;2024-01-06T07:39:57;93738.91;;;2.49;100.00
56330;BME280;42236;48.058;10.632;2024-01-06T07:42:43;93743.47;;;2.48;100.00
56330;BME280;42236;48.058;10.632;2024-01-06T07:45:29;93753.34;;;2.48;100.00
56330;BME280;42236;48.058;10.632;2024-01-06T07:48:14;93755.22;;;2.47;100.00
56330;BME280;42236;48.058;10.632;2024-01-06T07:51:00;93754.13;;;2.48;100.00
56330;BME280;42236;48.058;10.632;2024-01-06T07:53:46;93751.16;;;2.50;100.00
56330;BME280;42236;48.058;10.632;2024-01-06T07:56:31;93752.72;;;2.51;100.00
56330;BME280;42236;48.058;10.632;2024-01-06T07:59:17;93760.09;;;2.54;100.00
56330;BME280;42236;48.058;10.632;2024-01-06T08:02:03;93766.19;;;2.54;100.00
56330;BME280;42236;48.058;10.632;2024-01-06T08:04:49;93759.75;;;2.55;100.00
56330;BME280;42236;48.058;10.632;2024-01-06T08:07:35;93763.19;;;2.56;100.00
56330;BME280;42236;48.058;10.632;2024-01-06T08:10:20;93763.53;;;2.54;100.00
56330;BME280;42236;48.058;10.632;2024-01-06T08:13:06;93766.81;;;2.51;100.00
56330;BME280;42236;48.058;10.632;2024-01-06T08:15:52;93758.84;;;2.51;100.00
56330;BME280;42236;48.058;10.632;2024-01-06T08:18:38;93765.41;;;2.54;100.00
56330;BME280;42236;48.058;10.632;2024-01-06T08:21:23;93765.09;;;2.55;100.00
56330;BME280;42236;48.058;10.632;2024-01-06T08:24:09;93766.66;;;2.56;100.00
56330;BME280;42236;48.058;10.632;2024-01-06T08:26:54;93769.81;;;2.59;100.00
56330;BME280;42236;48.058;10.632;2024-01-06T08:29:40;93774.81;;;2.60;100.00
56330;BME280;42236;48.058;10.632;2024-01-06T08:32:26;93771.50;;;2.63;100.00
56330;BME280;42236;48.058;10.632;2024-01-06T08:35:11;93779.06;;;2.70;100.00
56330;BME280;42236;48.058;10.632;2024-01-06T08:37:57;93777.34;;;2.74;100.00
56330;BME280;42236;48.058;10.632;2024-01-06T08:40:43;93770.59;;;2.76;100.00
56330;BME280;42236;48.058;10.632;2024-01-06T08:43:30;93775.16;;;2.76;100.00
56330;BME280;42236;48.058;10.632;2024-01-06T08:46:16;93786.72;;;2.80;100.00
56330;BME280;42236;48.058;10.632;2024-01-06T08:49:02;93795.19;;;2.82;100.00
56330;BME280;42236;48.058;10.632;2024-01-06T08:51:48;93791.44;;;2.83;100.00
56330;BME280;42236;48.058;10.632;2024-01-06T08:54:33;93791.44;;;2.83;100.00
56330;BME280;42236;48.058;10.632;2024-01-06T08:57:20;93790.34;;;2.84;100.00
56330;BME280;42236;48.058;10.632;2024-01-06T09:00:06;93793.00;;;2.84;100.00
56330;BME280;42236;48.058;10.632;2024-01-06T09:02:51;93792.38;;;2.87;100.00
56330;BME280;42236;48.058;10.632;2024-01-06T09:05:37;93786.28;;;2.87;100.00
56330;BME280;42236;48.058;10.632;2024-01-06T09:08:23;93782.84;;;2.86;100.00
56330;BME280;42236;48.058;10.632;2024-01-06T09:11:11;93796.00;;;2.91;100.00
56330;BME280;42236;48.058;10.632;2024-01-06T09:13:57;93800.69;;;2.94;100.00
56330;BME280;42236;48.058;10.632;2024-01-06T09:16:43;93797.41;;;2.97;100.00
56330;BME280;42236;48.058;10.632;2024-01-06T09:19:28;93800.53;;;2.99;100.00
56330;BME280;42236;48.058;10.632;2024-01-06T09:22:14;93808.53;;;2.99;100.00
56330;BME280;42236;48.058;10.632;2024-01-06T09:25:00;93804.31;;;2.98;100.00
56330;BME280;42236;48.058;10.632;2024-01-06T09:27:45;93808.84;;;2.98;100.00
56330;BME280;42236;48.058;10.632;2024-01-06T09:30:31;93805.84;;;2.99;100.00
56330;BME280;42236;48.058;10.632;2024-01-06T09:33:17;93806.81;;;3.04;100.00
56330;BME280;42236;48.058;10.632;2024-01-06T09:36:03;93811.50;;;3.07;100.00
56330;BME280;42236;48.058;10.632;2024-01-06T09:38:49;93802.44;;;3.08;100.00
56330;BME280;42236;48.058;10.632;2024-01-06T09:41:35;93814.66;;;3.09;100.00
56330;BME280;42236;48.058;10.632;2024-01-06T09:44:21;93818.56;;;3.11;100.00
56330;BME280;42236;48.058;10.632;2024-01-06T09:47:10;93816.72;;;3.12;100.00
56330;BME280;42236;48.058;10.632;2024-01-06T09:49:57;93807.59;;;3.13;100.00
56330;BME280;42236;48.058;10.632;2024-01-06T09:52:47;93811.22;;;3.17;100.00
56330;BME280;42236;48.058;10.632;2024-01-06T09:55:49;93813.56;;;3.18;100.00
56330;BME280;42236;48.058;10.632;2024-01-06T09:58:38;93813.56;;;3.18;100.00
56330;BME280;42236;48.058;10.632;2024-01-06T10:01:24;93809.31;;;3.17;100.00
56330;BME280;42236;48.058;10.632;2024-01-06T10:04:10;93814.97;;;3.16;100.00
56330;BME280;42236;48.058;10.632;2024-01-06T10:06:55;93806.97;;;3.16;100.00
56330;BME280;42236;48.058;10.632;2024-01-06T10:09:42;93811.22;;;3.17;100.00
56330;BME280;42236;48.058;10.632;2024-01-06T10:12:28;93806.66;;;3.17;100.00
56330;BME280;42236;48.058;10.632;2024-01-06T10:15:13;93801.47;;;3.21;100.00
56330;BME280;42236;48.058;10.632;2024-01-06T10:17:59;93803.19;;;3.26;100.00
56330;BME280;42236;48.058;10.632;2024-01-06T10:20:45;93803.38;;;3.29;100.00
56330;BME280;42236;48.058;10.632;2024-01-06T10:23:32;93800.38;;;3.31;100.00
56330;BME280;42236;48.058;10.632;2024-01-06T10:26:18;93805.41;;;3.32;100.00
56330;BME280;42236;48.058;10.632;2024-01-06T10:29:04;93794.09;;;3.35;100.00
56330;BME280;42236;48.058;10.632;2024-01-06T10:31:49;93794.56;;;3.37;100.00
56330;BME280;42236;48.058;10.632;2024-01-06T10:34:36;93793.16;;;3.40;100.00
56330;BME280;42236;48.058;10.632;2024-01-06T10:37:23;93789.53;;;3.45;100.00
56330;BME280;42236;48.058;10.632;2024-01-06T10:40:16;93799.56;;;3.48;100.00
56330;BME280;42236;48.058;10.632;2024-01-06T10:43:03;93794.56;;;3.46;100.00
56330;BME280;42236;48.058;10.632;2024-01-06T10:45:50;93796.47;;;3.46;100.00
56330;BME280;42236;48.058;10.632;2024-01-06T10:48:38;93797.06;;;3.42;100.00
56330;BME280;42236;48.058;10.632;2024-01-06T10:51:28;93801.94;;;3.40;100.00
56330;BME280;42236;48.058;10.632;2024-01-06T10:54:17;93792.38;;;3.39;100.00
56330;BME280;42236;48.058;10.632;2024-01-06T10:57:04;93799.13;;;3.46;100.00
56330;BME280;42236;48.058;10.632;2024-01-06T10:59:52;93799.56;;;3.48;100.00
56330;BME280;42236;48.058;10.632;2024-01-06T11:02:39;93802.56;;;3.46;100.00
56330;BME280;42236;48.058;10.632;2024-01-06T11:05:25;93804.91;;;3.48;100.00
56330;BME280;42236;48.058;10.632;2024-01-06T11:08:12;93807.91;;;3.46;100.00
56330;BME280;42236;48.058;10.632;2024-01-06T11:10:58;93801.16;;;3.49;100.00
56330;BME280;42236;48.058;10.632;2024-01-06T11:13:44;93802.09;;;3.53;100.00
56330;BME280;42236;48.058;10.632;2024-01-06T11:16:35;93799.88;;;3.55;100.00
56330;BME280;42236;48.058;10.632;2024-01-06T11:22:29;93797.53;;;3.53;100.00
56330;BME280;42236;48.058;10.632;2024-01-06T11:25:19;93791.09;;;3.54;100.00
56330;BME280;42236;48.058;10.632;2024-01-06T11:28:07;93783.25;;;3.58;100.00
56330;BME280;42236;48.058;10.632;2024-01-06T11:31:12;93776.00;;;3.67;100.00
56330;BME280;42236;48.058;10.632;2024-01-06T11:34:15;93776.94;;;3.71;100.00
56330;BME280;42236;48.058;10.632;2024-01-06T11:37:01;93781.03;;;3.77;100.00
56330;BME280;42236;48.058;10.632;2024-01-06T11:39:46;93773.50;;;3.79;100.00
56330;BME280;42236;48.058;10.632;2024-01-06T11:42:33;93772.84;;;3.82;100.00
56330;BME280;42236;48.058;10.632;2024-01-06T11:45:19;93764.97;;;3.86;100.00
56330;BME280;42236;48.058;10.632;2024-01-06T11:48:10;93768.41;;;3.87;100.00
56330;BME280;42236;48.058;10.632;2024-01-06T11:50:58;93767.97;;;3.84;100.00
56330;BME280;42236;48.058;10.632;2024-01-06T11:53:45;93758.84;;;3.85;100.00
56330;BME280;42236;48.058;10.632;2024-01-06T11:56:31;93762.78;;;3.88;100.00
56330;BME280;42236;48.058;10.632;2024-01-06T11:59:16;93756.53;;;3.75;100.00
56330;BME280;42236;48.058;10.632;2024-01-06T12:02:02;93758.16;;;3.59;100.00
56330;BME280;42236;48.058;10.632;2024-01-06T12:04:52;93751.75;;;3.51;100.00
56330;BME280;42236;48.058;10.632;2024-01-06T12:07:41;93745.00;;;3.54;100.00
56330;BME280;42236;48.058;10.632;2024-01-06T12:10:28;93759.56;;;3.65;100.00
56330;BME280;42236;48.058;10.632;2024-01-06T12:13:15;93750.91;;;3.68;100.00
56330;BME280;42236;48.058;10.632;2024-01-06T12:16:00;93757.31;;;3.76;100.00
56330;BME280;42236;48.058;10.632;2024-01-06T12:18:46;93753.69;;;3.80;100.00
56330;BME280;42236;48.058;10.632;2024-01-06T12:21:32;93759.50;;;3.82;100.00
56330;BME280;42236;48.058;10.632;2024-01-06T12:24:23;93763.72;;;3.83;100.00
56330;BME280;42236;48.058;10.632;2024-01-06T12:27:09;93756.06;;;3.82;100.00
56330;BME280;42236;48.058;10.632;2024-01-06T12:29:57;93761.41;;;3.82;100.00
56330;BME280;42236;48.058;10.632;2024-01-06T12:32:44;93760.16;;;3.79;100.00
56330;BME280;42236;48.058;10.632;2024-01-06T12:35:30;93759.34;;;3.79;100.00
56330;BME280;42236;48.058;10.632;2024-01-06T12:38:19;93750.56;;;3.78;100.00
56330;BME280;42236;48.058;10.632;2024-01-06T12:41:05;93749.78;;;3.78;100.00
56330;BME280;42236;48.058;10.632;2024-01-06T12:43:50;93750.44;;;3.66;100.00
56330;BME280;42236;48.058;10.632;2024-01-06T12:46:36;93741.84;;;3.52;100.00
56330;BME280;42236;48.058;10.632;2024-01-06T12:49:22;93749.09;;;3.42;100.00
56330;BME280;42236;48.058;10.632;2024-01-06T12:52:08;93743.63;;;3.30;100.00
56330;BME280;42236;48.058;10.632;2024-01-06T12:54:54;93744.91;;;3.15;100.00
56330;BME280;42236;48.058;10.632;2024-01-06T12:57:39;93752.09;;;3.06;100.00
56330;BME280;42236;48.058;10.632;2024-01-06T13:00:25;93748.84;;;3.01;100.00
56330;BME280;42236;48.058;10.632;2024-01-06T13:03:11;93746.81;;;2.97;100.00
56330;BME280;42236;48.058;10.632;2024-01-06T13:05:57;93748.53;;;2.93;100.00
56330;BME280;42236;48.058;10.632;2024-01-06T13:08:43;93746.63;;;2.94;100.00
56330;BME280;42236;48.058;10.632;2024-01-06T13:11:28;93756.34;;;2.98;100.00
56330;BME280;42236;48.058;10.632;2024-01-06T13:14:14;93750.38;;;3.02;100.00
56330;BME280;42236;48.058;10.632;2024-01-06T13:16:59;93750.84;;;3.04;100.00
56330;BME280;42236;48.058;10.632;2024-01-06T13:19:45;93751.34;;;3.06;100.00
56330;BME280;42236;48.058;10.632;2024-01-06T13:22:31;93754.59;;;3.11;100.00
56330;BME280;42236;48.058;10.632;2024-01-06T13:25:17;93757.91;;;3.17;100.00
56330;BME280;42236;48.058;10.632;2024-01-06T13:28:05;93761.50;;;3.21;100.00
56330;BME280;42236;48.058;10.632;2024-01-06T13:30:51;93758.84;;;3.21;100.00
56330;BME280;42236;48.058;10.632;2024-01-06T13:33:37;93762.59;;;3.20;100.00
56330;BME280;42236;48.058;10.632;2024-01-06T13:36:23;93760.25;;;3.18;100.00
56330;BME280;42236;48.058;10.632;2024-01-06T13:39:09;93762.31;;;3.13;100.00
56330;BME280;42236;48.058;10.632;2024-01-06T13:42:02;93761.53;;;3.12;100.00
56330;BME280;42236;48.058;10.632;2024-01-06T13:44:51;93766.22;;;3.07;100.00
56330;BME280;42236;48.058;10.632;2024-01-06T13:47:37;93771.53;;;3.07;100.00
56330;BME280;42236;48.058;10.632;2024-01-06T13:50:23;93765.75;;;3.05;100.00
56330;BME280;42236;48.058;10.632;2024-01-06T13:53:08;93766.38;;;3.02;100.00
56330;BME280;42236;48.058;10.632;2024-01-06T13:55:54;93775.47;;;3.01;100.00
56330;BME280;42236;48.058;10.632;2024-01-06T13:58:40;93774.06;;;3.03;100.00
56330;BME280;42236;48.058;10.632;2024-01-06T14:01:26;93777.19;;;3.05;100.00
56330;BME280;42236;48.058;10.632;2024-01-06T14:04:11;93777.97;;;3.06;100.00
56330;BME280;42236;48.058;10.632;2024-01-06T14:06:58;93782.66;;;3.09;100.00
56330;BME280;42236;48.058;10.632;2024-01-06T14:09:44;93789.44;;;3.15;100.00
56330;BME280;42236;48.058;10.632;2024-01-06T14:12:31;93785.03;;;3.19;100.00
56330;BME280;42236;48.058;10.632;2024-01-06T14:15:17;93784.41;;;3.22;100.00
56330;BME280;42236;48.058;10.632;2024-01-06T14:18:03;93789.56;;;3.27;100.00
56330;BME280;42236;48.058;10.632;2024-01-06T14:20:49;93785.19;;;3.31;100.00
56330;BME280;42236;48.058;10.632;2024-01-06T14:23:35;93789.88;;;3.34;100.00
56330;BME280;42236;48.058;10.632;2024-01-06T14:26:20;93790.66;;;3.35;100.00
56330;BME280;42236;48.058;10.632;2024-01-06T14:29:06;93788.28;;;3.33;100.00
56330;BME280;42236;48.058;10.632;2024-01-06T14:31:52;93781.88;;;3.34;100.00